createdAt,value
2023-09-18T00:01:41.231Z,35.42
2023-09-18T00:04:07.789Z,33.52
2023-09-18T00:06:34.323Z,32.92
2023-09-18T00:09:00.861Z,34.73
2023-09-18T00:11:27.462Z,35.41
2023-09-18T00:13:54.037Z,33.20
2023-09-18T00:16:20.622Z,33.82
2023-09-18T00:18:47.155Z,37.72
2023-09-18T00:21:13.685Z,33.63
2023-09-18T00:23:40.269Z,34.52
2023-09-18T00:26:06.892Z,34.78
2023-09-18T00:28:33.502Z,34.68
2023-09-18T00:31:00.120Z,35.91
2023-09-18T00:33:26.725Z,35.31
2023-09-18T00:35:53.302Z,34.95
2023-09-18T00:38:19.924Z,32.73
2023-09-18T00:40:46.555Z,36.45
2023-09-18T00:43:13.195Z,34.45
2023-09-18T00:45:39.796Z,35.30
2023-09-18T00:48:06.421Z,34.98
2023-09-18T00:50:33.103Z,36.17
2023-09-18T00:52:59.659Z,34.85
2023-09-18T00:55:26.303Z,35.24
2023-09-18T00:57:52.941Z,32.97
2023-09-18T01:00:19.496Z,33.46
2023-09-18T01:02:46.600Z,31.51
2023-09-18T01:05:13.302Z,32.17
2023-09-18T01:07:39.899Z,34.87
2023-09-18T01:10:06.468Z,34.16
2023-09-18T01:12:33.028Z,33.86
2023-09-18T01:14:59.608Z,34.38
2023-09-18T01:17:26.141Z,33.93
2023-09-18T01:19:52.679Z,34.57
2023-09-18T01:22:20.225Z,34.77
2023-09-18T01:24:46.839Z,30.74
2023-09-18T01:27:13.404Z,33.12
2023-09-18T01:29:39.937Z,33.15
2023-09-18T01:32:06.560Z,33.36
2023-09-18T01:34:33.254Z,33.83
2023-09-18T01:36:59.778Z,34.68
2023-09-18T01:39:26.320Z,32.48
2023-09-18T01:41:52.857Z,31.96
2023-09-18T01:44:19.341Z,35.19
2023-09-18T01:46:45.999Z,35.69
2023-09-18T01:49:12.660Z,32.91
2023-09-18T01:51:39.187Z,34.33
2023-09-18T01:54:05.716Z,33.75
2023-09-18T01:56:32.348Z,33.63
2023-09-18T01:58:58.978Z,31.39
2023-09-18T02:01:26.060Z,32.26
2023-09-18T02:04:17.755Z,32.54
2023-09-18T02:06:39.782Z,33.05
2023-09-18T02:09:06.433Z,34.66
2023-09-18T02:11:32.997Z,33.38
2023-09-18T02:13:59.576Z,32.85
2023-09-18T02:16:26.198Z,33.70
2023-09-18T02:18:52.918Z,32.98
2023-09-18T02:21:19.605Z,34.36
2023-09-18T02:23:46.221Z,32.42
2023-09-18T02:26:12.833Z,33.09
2023-09-18T02:28:40.413Z,31.10
2023-09-18T02:31:06.943Z,33.10
2023-09-18T02:33:33.544Z,32.30
2023-09-18T02:36:00.184Z,32.85
2023-09-18T02:38:26.746Z,33.93
2023-09-18T02:40:53.450Z,34.07
2023-09-18T02:43:19.971Z,32.36
2023-09-18T02:45:46.531Z,35.46
2023-09-18T02:48:13.106Z,33.86
2023-09-18T02:50:39.710Z,33.78
2023-09-18T02:53:06.383Z,35.36
2023-09-18T02:55:32.982Z,32.38
2023-09-18T02:57:59.556Z,35.20
2023-09-18T03:00:40.962Z,35.98
2023-09-18T03:03:09.859Z,34.28
2023-09-18T03:05:36.632Z,34.01
2023-09-18T03:08:03.299Z,35.48
2023-09-18T03:10:29.910Z,35.67
2023-09-18T03:12:56.454Z,38.51
2023-09-18T03:15:23.000Z,33.07
2023-09-18T03:17:49.635Z,35.09
2023-09-18T03:20:16.409Z,34.71
2023-09-18T03:22:42.979Z,32.96
2023-09-18T03:25:09.532Z,36.21
2023-09-18T03:27:36.080Z,33.96
2023-09-18T03:30:02.622Z,34.12
2023-09-18T03:32:29.200Z,35.50
2023-09-18T03:34:55.819Z,36.76
2023-09-18T03:37:22.449Z,34.07
2023-09-18T03:39:49.037Z,34.16
2023-09-18T03:42:15.666Z,37.12
2023-09-18T03:44:42.228Z,37.03
2023-09-18T03:47:08.896Z,39.46
2023-09-18T03:49:35.496Z,35.39
2023-09-18T03:52:02.047Z,37.84
2023-09-18T03:54:28.587Z,41.44
2023-09-18T03:56:55.120Z,40.77
2023-09-18T03:59:21.661Z,45.32
2023-09-18T04:01:48.230Z,41.16
2023-09-18T04:04:14.784Z,41.47
2023-09-18T04:06:41.383Z,39.50
2023-09-18T04:09:07.943Z,39.81
2023-09-18T04:11:34.498Z,40.75
2023-09-18T04:14:01.149Z,39.66
2023-09-18T04:16:27.773Z,37.09
2023-09-18T04:18:54.580Z,38.36
2023-09-18T04:21:21.256Z,39.72
2023-09-18T04:23:47.856Z,37.91
2023-09-18T04:26:14.549Z,39.20
2023-09-18T04:28:41.063Z,38.51
2023-09-18T04:31:07.596Z,42.03
2023-09-18T04:33:34.226Z,38.91
2023-09-18T04:36:00.830Z,37.80
2023-09-18T04:38:27.424Z,33.62
2023-09-18T04:40:54.021Z,31.35
2023-09-18T04:43:20.551Z,29.71
2023-09-18T04:45:47.223Z,32.64
2023-09-18T04:48:13.856Z,29.14
2023-09-18T04:50:40.643Z,28.61
2023-09-18T04:53:07.321Z,29.34
2023-09-18T04:55:33.862Z,29.08
2023-09-18T04:58:00.549Z,27.40
2023-09-18T05:00:27.183Z,26.77
2023-09-18T05:02:53.849Z,25.59
2023-09-18T05:05:20.602Z,24.54
2023-09-18T05:07:47.176Z,22.65
2023-09-18T05:10:13.721Z,24.04
2023-09-18T05:12:40.267Z,24.38
2023-09-18T05:15:06.903Z,24.47
2023-09-18T05:17:33.519Z,22.39
2023-09-18T05:20:00.145Z,20.89
2023-09-18T05:22:26.744Z,22.35
2023-09-18T05:24:53.280Z,21.40
2023-09-18T05:27:19.809Z,21.02
2023-09-18T05:29:46.345Z,21.57
2023-09-18T05:32:12.943Z,18.11
2023-09-18T05:34:39.497Z,21.99
2023-09-18T05:37:06.073Z,20.06
2023-09-18T05:39:32.592Z,17.14
2023-09-18T05:41:59.137Z,19.44
2023-09-18T05:44:25.696Z,16.89
2023-09-18T05:46:52.311Z,17.37
2023-09-18T05:49:18.880Z,15.45
2023-09-18T05:51:45.421Z,13.95
2023-09-18T05:54:12.033Z,14.99
2023-09-18T05:56:38.591Z,14.88
2023-09-18T05:59:05.184Z,13.09
2023-09-18T06:01:31.760Z,13.30
2023-09-18T06:03:58.417Z,12.06
2023-09-18T06:06:24.955Z,12.61
2023-09-18T06:08:51.790Z,12.66
2023-09-18T06:11:18.912Z,10.24
2023-09-18T06:13:45.455Z,10.61
2023-09-18T06:16:11.996Z,9.94
2023-09-18T06:18:38.676Z,9.12
2023-09-18T06:21:05.214Z,11.87
2023-09-18T06:23:31.795Z,11.58
2023-09-18T06:25:58.424Z,11.22
2023-09-18T06:28:24.893Z,12.32
2023-09-18T06:30:51.496Z,11.06
2023-09-18T06:33:18.116Z,10.43
2023-09-18T06:35:44.766Z,9.58
2023-09-18T06:38:11.420Z,10.52
2023-09-18T06:40:37.959Z,11.12
2023-09-18T06:43:04.497Z,10.20
2023-09-18T06:45:31.016Z,9.86
2023-09-18T06:47:57.664Z,11.91
2023-09-18T06:50:24.357Z,11.06
2023-09-18T06:52:50.991Z,10.85
2023-09-18T06:55:17.566Z,10.28
2023-09-18T06:57:44.124Z,10.37
2023-09-18T07:00:10.733Z,11.56
2023-09-18T07:02:37.573Z,9.50
2023-09-18T07:05:04.208Z,8.58
2023-09-18T07:07:30.753Z,9.82
2023-09-18T07:12:26.741Z,9.38
2023-09-18T07:14:53.304Z,9.45
2023-09-18T07:17:19.925Z,10.01
2023-09-18T07:19:46.448Z,9.44
2023-09-18T07:22:12.984Z,9.84
2023-09-18T07:24:39.564Z,10.57
2023-09-18T07:27:06.223Z,11.32
2023-09-18T07:29:32.804Z,11.17
2023-09-18T07:31:59.542Z,10.56
2023-09-18T07:34:26.158Z,11.50
2023-09-18T07:36:52.714Z,12.51
2023-09-18T07:39:19.218Z,9.48
2023-09-18T07:41:45.848Z,10.37
2023-09-18T07:44:12.462Z,10.77
2023-09-18T07:46:39.063Z,10.94
2023-09-18T07:49:05.615Z,10.46
2023-09-18T07:51:33.192Z,11.21
2023-09-18T07:53:59.706Z,11.85
2023-09-18T07:56:26.310Z,10.60
2023-09-18T07:58:53.207Z,12.94
2023-09-18T08:01:19.931Z,11.86
2023-09-18T08:03:46.551Z,11.94
2023-09-18T08:06:13.155Z,13.28
2023-09-18T08:08:39.793Z,12.93
2023-09-18T08:11:06.454Z,12.94
2023-09-18T08:13:33.005Z,14.33
2023-09-18T08:15:59.715Z,12.60
2023-09-18T08:18:26.484Z,11.56
2023-09-18T08:20:53.167Z,13.75
2023-09-18T08:23:19.777Z,10.70
2023-09-18T08:25:46.365Z,11.54
2023-09-18T08:28:12.972Z,12.48
2023-09-18T08:30:39.517Z,11.56
2023-09-18T08:33:06.373Z,13.09
2023-09-18T08:35:33.246Z,11.87
2023-09-18T08:37:59.879Z,12.03
2023-09-18T08:40:26.450Z,10.37
2023-09-18T08:42:53.018Z,9.83
2023-09-18T08:45:19.629Z,10.26
2023-09-18T08:47:46.258Z,10.73
2023-09-18T08:50:13.059Z,10.75
2023-09-18T08:52:39.670Z,10.01
2023-09-18T08:55:08.158Z,11.17
2023-09-18T08:57:36.003Z,12.87
2023-09-18T09:00:02.572Z,10.17
2023-09-18T09:02:29.319Z,10.62
2023-09-18T09:04:55.947Z,10.11
2023-09-18T09:07:22.562Z,11.02
2023-09-18T09:09:49.140Z,10.47
2023-09-18T09:12:15.727Z,10.74
2023-09-18T09:14:42.284Z,11.88
2023-09-18T09:17:08.895Z,11.00
2023-09-18T09:19:35.405Z,12.53
2023-09-18T09:22:02.069Z,11.60
2023-09-18T09:24:28.693Z,13.53
2023-09-18T09:26:55.293Z,12.48
2023-09-18T09:29:21.912Z,13.32
2023-09-18T09:31:48.512Z,13.22
2023-09-18T09:34:15.079Z,13.35
2023-09-18T09:36:41.659Z,11.15
2023-09-18T09:39:08.222Z,11.57
2023-09-18T09:41:34.779Z,10.40
2023-09-18T09:44:01.420Z,10.13
2023-09-18T09:46:28.046Z,9.89
2023-09-18T09:48:54.719Z,10.14
2023-09-18T09:51:23.680Z,9.41
2023-09-18T09:53:50.226Z,10.83
2023-09-18T09:56:16.863Z,10.87
2023-09-18T09:58:44.724Z,10.43
2023-09-18T10:01:11.306Z,9.47
2023-09-18T10:03:37.914Z,9.88
2023-09-18T10:06:04.593Z,8.09
2023-09-18T10:08:31.239Z,8.66
2023-09-18T10:10:57.843Z,10.76
2023-09-18T10:13:24.543Z,25.19
2023-09-18T10:15:51.171Z,18.88
2023-09-18T10:20:44.703Z,13.87
2023-09-18T10:23:11.312Z,12.66
2023-09-18T10:25:37.950Z,12.82
2023-09-18T10:28:04.678Z,12.41
2023-09-18T10:30:31.277Z,13.75
2023-09-18T10:32:57.987Z,14.02
2023-09-18T10:35:24.710Z,15.22
2023-09-18T10:37:51.400Z,13.56
2023-09-18T10:40:17.963Z,11.67
2023-09-18T10:42:44.539Z,12.83
2023-09-18T10:45:11.208Z,13.61
2023-09-18T10:47:37.843Z,13.08
2023-09-18T10:50:04.493Z,12.79
2023-09-18T10:52:31.043Z,12.14
2023-09-18T10:54:57.587Z,13.17
2023-09-18T10:57:24.583Z,11.99
2023-09-18T10:59:51.336Z,12.37
2023-09-18T11:02:18.021Z,12.18
2023-09-18T11:04:44.644Z,13.07
2023-09-18T11:07:11.219Z,11.89
2023-09-18T11:09:37.849Z,12.51
2023-09-18T11:12:04.661Z,13.35
2023-09-18T11:14:31.290Z,12.99
2023-09-18T11:16:57.869Z,13.82
2023-09-18T11:19:25.053Z,13.99
2023-09-18T11:21:51.632Z,14.31
2023-09-18T11:24:18.157Z,12.56
2023-09-18T11:26:44.740Z,14.55
2023-09-18T11:29:11.337Z,13.96
2023-09-18T11:31:37.908Z,13.80
2023-09-18T11:34:04.540Z,12.71
2023-09-18T11:36:31.087Z,12.95
2023-09-18T11:38:59.598Z,21.55
2023-09-18T11:41:26.873Z,17.33
2023-09-18T11:43:53.495Z,19.90
2023-09-18T11:46:20.142Z,16.59
2023-09-18T11:48:46.728Z,15.21
2023-09-18T11:51:13.294Z,16.52
2023-09-18T11:53:39.838Z,15.03
2023-09-18T11:56:06.409Z,16.40
2023-09-18T11:58:33.050Z,15.44
2023-09-18T12:00:59.608Z,13.98
2023-09-18T12:03:26.668Z,14.25
2023-09-18T12:05:53.539Z,16.12
2023-09-18T12:08:20.241Z,14.91
2023-09-18T12:10:46.869Z,13.96
2023-09-18T12:13:13.486Z,14.27
2023-09-18T12:15:40.081Z,14.79
2023-09-18T12:18:06.792Z,13.66
2023-09-18T12:20:33.381Z,15.13
2023-09-18T12:22:59.912Z,38.64
2023-09-18T12:25:26.467Z,38.71
2023-09-18T12:27:53.198Z,20.86
2023-09-18T12:30:19.736Z,21.39
2023-09-18T12:32:46.375Z,21.97
2023-09-18T12:35:12.981Z,18.47
2023-09-18T12:37:39.559Z,17.89
2023-09-18T12:40:06.113Z,15.19
2023-09-18T12:42:32.724Z,16.81
2023-09-18T12:44:59.369Z,16.28
2023-09-18T12:47:25.959Z,16.70
2023-09-18T12:49:52.521Z,15.28
2023-09-18T12:52:19.018Z,16.25
2023-09-18T12:54:45.625Z,16.74
2023-09-18T12:57:12.203Z,17.72
2023-09-18T12:59:38.791Z,17.84
2023-09-18T13:02:05.432Z,18.35
2023-09-18T13:04:40.576Z,15.48
2023-09-18T13:07:08.030Z,16.44
2023-09-18T13:09:34.668Z,21.36
2023-09-18T13:12:01.268Z,18.50
2023-09-18T13:14:27.812Z,17.03
2023-09-18T13:16:54.381Z,15.70
2023-09-18T13:19:20.939Z,13.82
2023-09-18T13:21:47.486Z,17.96
2023-09-18T13:24:14.185Z,15.25
2023-09-18T13:26:40.873Z,17.46
2023-09-18T13:29:07.474Z,15.93
2023-09-18T13:31:34.104Z,14.56
2023-09-18T13:34:00.742Z,16.84
2023-09-18T13:36:27.424Z,15.03
2023-09-18T13:38:54.015Z,16.11
2023-09-18T13:41:20.695Z,16.10
2023-09-18T13:43:47.323Z,17.20
2023-09-18T13:46:13.918Z,14.94
2023-09-18T13:48:40.651Z,14.45
2023-09-18T13:51:07.246Z,14.00
2023-09-18T13:53:34.194Z,17.02
2023-09-18T13:56:01.096Z,15.63
2023-09-18T13:58:27.701Z,16.55
2023-09-18T14:00:54.331Z,14.97
2023-09-18T14:03:21.133Z,16.44
2023-09-18T14:05:47.842Z,15.42
2023-09-18T14:08:14.493Z,15.83
2023-09-18T14:10:41.089Z,16.97
2023-09-18T14:13:07.683Z,16.50
2023-09-18T14:15:34.267Z,17.82
2023-09-18T14:18:00.893Z,16.50
2023-09-18T14:20:27.476Z,15.99
2023-09-18T14:22:54.084Z,15.80
2023-09-18T14:25:20.683Z,14.19
2023-09-18T14:27:47.272Z,15.54
2023-09-18T14:30:13.823Z,14.79
2023-09-18T14:32:40.458Z,15.07
2023-09-18T14:35:07.076Z,14.04
2023-09-18T14:37:33.688Z,15.70
2023-09-18T14:40:00.272Z,15.57
2023-09-18T14:42:26.769Z,14.42
2023-09-18T14:44:53.359Z,15.00
2023-09-18T14:47:24.456Z,15.39
2023-09-18T14:49:51.478Z,14.09
2023-09-18T14:52:18.022Z,13.59
2023-09-18T14:54:44.569Z,14.87
2023-09-18T14:57:11.113Z,14.54
2023-09-18T14:59:42.404Z,13.88
2023-09-18T15:02:09.305Z,14.18
2023-09-18T15:04:35.907Z,13.87
2023-09-18T15:07:02.480Z,14.37
2023-09-18T15:09:29.033Z,12.87
2023-09-18T15:11:55.630Z,12.86
2023-09-18T15:14:22.305Z,14.11
2023-09-18T15:16:49.061Z,12.95
2023-09-18T15:19:17.169Z,12.42
2023-09-18T15:21:45.891Z,12.96
2023-09-18T15:24:12.458Z,12.87
2023-09-18T15:26:39.033Z,12.42
2023-09-18T15:29:05.601Z,11.96
2023-09-18T15:31:32.153Z,12.77
2023-09-18T15:33:58.666Z,12.69
2023-09-18T15:36:28.432Z,12.35
2023-09-18T15:38:57.490Z,12.94
2023-09-18T15:41:24.423Z,11.92
2023-09-18T15:43:51.502Z,12.73
2023-09-18T15:46:19.068Z,13.13
2023-09-18T15:48:45.557Z,13.27
2023-09-18T15:51:12.182Z,12.95
2023-09-18T15:53:38.878Z,12.24
2023-09-18T15:56:05.539Z,13.04
2023-09-18T15:58:32.033Z,12.61
2023-09-18T16:00:58.515Z,11.77
2023-09-18T16:03:25.174Z,13.24
2023-09-18T16:05:51.935Z,11.40
2023-09-18T16:08:18.484Z,13.26
2023-09-18T16:10:44.938Z,12.43
2023-09-18T16:13:11.452Z,12.04
2023-09-18T16:15:37.942Z,11.51
2023-09-18T16:18:04.532Z,12.34
2023-09-18T16:20:31.168Z,11.46
2023-09-18T16:22:57.731Z,12.55
2023-09-18T16:25:24.269Z,10.93
2023-09-18T16:27:50.778Z,11.14
2023-09-18T16:30:17.320Z,11.99
2023-09-18T16:32:43.912Z,10.99
2023-09-18T16:35:10.454Z,12.69
2023-09-18T16:37:37.064Z,12.54
2023-09-18T16:40:03.596Z,11.14
2023-09-18T16:42:30.113Z,11.21
2023-09-18T16:44:56.589Z,11.19
2023-09-18T16:47:23.104Z,11.28
2023-09-18T16:49:49.673Z,12.98
2023-09-18T16:52:16.201Z,15.23
2023-09-18T16:54:42.717Z,12.66
2023-09-18T16:57:09.246Z,13.87
2023-09-18T16:59:35.769Z,15.26
2023-09-18T17:02:02.263Z,11.85
2023-09-18T17:04:28.815Z,12.19
2023-09-18T17:06:55.321Z,12.22
2023-09-18T17:09:21.896Z,12.68
2023-09-18T17:11:48.395Z,12.52
2023-09-18T17:14:14.899Z,11.95
2023-09-18T17:16:41.392Z,13.45
2023-09-18T17:19:07.927Z,13.61
2023-09-18T17:21:34.723Z,14.50
2023-09-18T17:24:01.233Z,14.34
2023-09-18T17:26:27.767Z,13.74
2023-09-18T17:28:54.285Z,15.65
2023-09-18T17:31:21.222Z,14.95
2023-09-18T17:33:47.753Z,13.04
2023-09-18T17:36:14.318Z,13.69
2023-09-18T17:38:41.002Z,13.52
2023-09-18T17:41:07.544Z,14.01
2023-09-18T17:43:34.024Z,14.54
2023-09-18T17:46:00.568Z,14.40
2023-09-18T17:48:27.146Z,14.79
2023-09-18T17:50:53.825Z,15.08
2023-09-18T17:53:20.285Z,14.72
2023-09-18T17:55:46.760Z,13.97
2023-09-18T17:58:13.248Z,15.66
2023-09-18T18:00:39.736Z,17.22
2023-09-18T18:03:06.473Z,19.31
2023-09-18T18:05:33.577Z,19.44
2023-09-18T18:08:00.278Z,20.14
2023-09-18T18:10:26.788Z,19.01
2023-09-18T18:12:53.343Z,18.41
2023-09-18T18:15:19.885Z,20.19
2023-09-18T18:17:46.514Z,20.22
2023-09-18T18:20:13.088Z,19.44
2023-09-18T18:22:39.618Z,20.45
2023-09-18T18:25:06.161Z,23.75
2023-09-18T18:27:32.665Z,18.44
2023-09-18T18:29:59.356Z,17.71
2023-09-18T18:32:25.985Z,17.31
2023-09-18T18:34:52.539Z,21.29
2023-09-18T18:37:19.177Z,20.59
2023-09-18T18:39:45.676Z,19.60
2023-09-18T18:42:12.184Z,20.73
2023-09-18T18:44:38.719Z,19.98
2023-09-18T18:47:05.297Z,18.61
2023-09-18T18:49:31.800Z,18.28
2023-09-18T18:51:58.357Z,17.91
2023-09-18T18:54:24.872Z,17.02
2023-09-18T18:56:51.484Z,16.83
2023-09-18T18:59:18.055Z,17.94
2023-09-18T19:01:44.579Z,17.25
2023-09-18T19:04:11.267Z,18.85
2023-09-18T19:06:37.877Z,18.03
2023-09-18T19:09:04.479Z,17.53
2023-09-18T19:11:31.026Z,18.42
2023-09-18T19:13:57.528Z,17.04
2023-09-18T19:16:24.055Z,16.93
2023-09-18T19:18:50.578Z,17.36
2023-09-18T19:21:17.075Z,17.31
2023-09-18T19:23:43.811Z,14.82
2023-09-18T19:26:11.220Z,16.43
2023-09-18T19:28:37.812Z,15.80
2023-09-18T19:31:04.376Z,15.18
2023-09-18T19:33:31.029Z,14.07
2023-09-18T19:35:57.700Z,16.23
2023-09-18T19:38:24.337Z,17.03
2023-09-18T19:40:50.887Z,16.47
2023-09-18T19:43:17.403Z,17.63
2023-09-18T19:45:44.184Z,16.72
2023-09-18T19:48:10.843Z,16.08
2023-09-18T19:50:37.523Z,15.13
2023-09-18T19:53:04.110Z,14.99
2023-09-18T19:55:30.734Z,16.90
2023-09-18T19:57:57.349Z,19.04
2023-09-18T20:00:24.024Z,16.21
2023-09-18T20:02:50.727Z,16.67
2023-09-18T20:05:17.335Z,15.41
2023-09-18T20:07:43.908Z,14.74
2023-09-18T20:10:10.555Z,14.75
2023-09-18T20:12:37.132Z,16.24
2023-09-18T20:15:03.786Z,14.62
2023-09-18T20:17:30.481Z,14.69
2023-09-18T20:19:57.100Z,15.92
2023-09-18T20:22:23.667Z,15.39
2023-09-18T20:24:50.245Z,14.34
2023-09-18T20:27:16.800Z,16.76
2023-09-18T20:29:43.324Z,15.84
2023-09-18T20:32:10.088Z,15.68
2023-09-18T20:34:36.666Z,14.81
2023-09-18T20:37:03.408Z,15.50
2023-09-18T20:39:29.988Z,18.29
2023-09-18T20:41:56.506Z,17.06
2023-09-18T20:44:23.051Z,17.06
2023-09-18T20:46:49.654Z,17.27
2023-09-18T20:49:17.225Z,16.95
2023-09-18T20:51:43.822Z,14.07
2023-09-18T20:54:10.427Z,17.83
2023-09-18T20:56:37.896Z,15.20
2023-09-18T20:59:05.934Z,17.46
2023-09-18T21:01:32.522Z,16.18
2023-09-18T21:03:59.218Z,16.15
2023-09-18T21:06:25.920Z,16.62
2023-09-18T21:08:52.587Z,19.23
2023-09-18T21:11:20.221Z,17.05
2023-09-18T21:13:46.819Z,17.62
2023-09-18T21:16:13.414Z,18.48
2023-09-18T21:18:40.226Z,14.74
2023-09-18T21:21:15.740Z,16.26
2023-09-18T21:23:42.975Z,15.77
2023-09-18T21:26:09.552Z,17.01
2023-09-18T21:28:36.226Z,15.59
2023-09-18T21:31:02.830Z,16.71
2023-09-18T21:33:29.499Z,16.51
2023-09-18T21:35:56.157Z,15.26
2023-09-18T21:38:22.795Z,16.00
2023-09-18T21:40:49.334Z,17.05
2023-09-18T21:43:15.887Z,15.41
2023-09-18T21:45:42.557Z,14.87
2023-09-18T21:48:09.280Z,16.40
2023-09-18T21:50:36.012Z,14.92
2023-09-18T21:53:02.698Z,13.09
2023-09-18T21:55:29.257Z,14.54
2023-09-18T21:57:55.856Z,12.70
2023-09-18T22:00:22.391Z,12.42
2023-09-18T22:02:49.094Z,11.14
2023-09-18T22:05:15.702Z,11.50
2023-09-18T22:07:42.253Z,12.62
2023-09-18T22:10:09.246Z,11.46
2023-09-18T22:12:35.821Z,11.53
2023-09-18T22:15:02.475Z,11.34
2023-09-18T22:17:29.053Z,12.72
2023-09-18T22:19:55.594Z,11.84
2023-09-18T22:22:22.158Z,12.23
2023-09-18T22:24:48.782Z,10.74
2023-09-18T22:27:15.296Z,11.24
2023-09-18T22:29:41.915Z,12.26
2023-09-18T22:32:08.435Z,11.30
2023-09-18T22:34:34.994Z,11.63
2023-09-18T22:37:01.616Z,10.74
2023-09-18T22:39:28.227Z,9.80
2023-09-18T22:41:54.899Z,11.98
2023-09-18T22:44:21.527Z,12.33
2023-09-18T22:46:48.255Z,10.13
2023-09-18T22:49:14.875Z,11.19
2023-09-18T22:51:41.389Z,11.46
2023-09-18T22:54:07.957Z,10.50
2023-09-18T22:56:34.574Z,10.52
2023-09-18T22:59:01.233Z,10.90
2023-09-18T23:01:27.810Z,10.32
2023-09-18T23:03:54.464Z,10.14
2023-09-18T23:06:21.017Z,10.25
2023-09-18T23:08:47.531Z,10.34
2023-09-18T23:11:14.089Z,10.54
2023-09-18T23:13:40.897Z,11.65
2023-09-18T23:16:07.725Z,11.62
2023-09-18T23:18:34.342Z,9.93
2023-09-18T23:21:00.884Z,10.93
2023-09-18T23:23:27.338Z,10.85
2023-09-18T23:25:53.921Z,10.55
2023-09-18T23:28:20.465Z,10.75
2023-09-18T23:30:47.096Z,9.25
2023-09-18T23:33:13.729Z,10.61
2023-09-18T23:35:40.394Z,11.05
2023-09-18T23:38:06.984Z,8.99
2023-09-18T23:40:33.612Z,10.75
2023-09-18T23:43:00.251Z,10.00
2023-09-18T23:45:26.683Z,9.82
2023-09-18T23:47:53.277Z,9.42
2023-09-18T23:50:20.011Z,9.56
2023-09-18T23:52:46.521Z,10.07
2023-09-18T23:55:13.085Z,9.78
2023-09-18T23:57:39.648Z,10.82
